createdAt,value
2018-08-25T00:02:34.209Z,1.70
2018-08-25T00:07:38.251Z,1.27
2018-08-25T00:12:42.042Z,1.60
2018-08-25T00:17:46.166Z,1.47
2018-08-25T00:22:49.954Z,1.80
2018-08-25T00:27:53.989Z,1.30
2018-08-25T00:32:58.007Z,1.20
2018-08-25T00:38:02.043Z,1.43
2018-08-25T00:43:06.389Z,1.80
2018-08-25T00:48:10.820Z,1.37
2018-08-25T00:53:14.846Z,1.60
2018-08-25T00:58:18.650Z,1.80
2018-08-25T01:03:22.658Z,1.43
2018-08-25T01:08:26.599Z,1.90
2018-08-25T01:13:30.377Z,1.57
2018-08-25T01:18:34.414Z,1.40
2018-08-25T01:23:38.422Z,1.57
2018-08-25T01:28:42.223Z,1.50
2018-08-25T01:33:46.214Z,1.53
2018-08-25T01:38:49.997Z,1.20
2018-08-25T01:43:54.066Z,1.27
2018-08-25T01:48:58.075Z,1.47
2018-08-25T01:54:02.234Z,1.50
2018-08-25T01:59:06.485Z,1.37
2018-08-25T02:04:10.621Z,1.60
2018-08-25T02:09:14.703Z,1.40
2018-08-25T02:14:18.773Z,1.30
2018-08-25T02:19:22.859Z,1.43
2018-08-25T02:24:26.670Z,1.50
2018-08-25T02:29:30.678Z,1.50
2018-08-25T02:34:35.592Z,1.80
2018-08-25T02:39:39.676Z,1.40
2018-08-25T02:44:43.706Z,1.20
2018-08-25T02:49:47.741Z,1.60
2018-08-25T02:54:51.773Z,1.60
2018-08-25T02:59:56.175Z,1.50
2018-08-25T03:04:59.983Z,1.50
2018-08-25T03:10:04.030Z,1.47
2018-08-25T03:15:07.929Z,1.70
2018-08-25T03:20:11.730Z,1.77
2018-08-25T03:25:15.788Z,1.67
2018-08-25T03:30:19.801Z,1.80
2018-08-25T03:35:23.973Z,1.50
2018-08-25T03:40:28.096Z,1.70
2018-08-25T03:45:32.097Z,2.03
2018-08-25T03:50:35.880Z,1.97
2018-08-25T03:55:39.934Z,2.20
2018-08-25T04:00:43.694Z,2.33
2018-08-25T04:05:47.749Z,1.83
2018-08-25T04:10:51.771Z,1.90
2018-08-25T04:15:55.798Z,2.10
2018-08-25T04:20:59.584Z,2.07
2018-08-25T04:26:03.609Z,2.10
2018-08-25T04:31:07.392Z,2.03
2018-08-25T04:36:11.156Z,2.13
2018-08-25T04:41:15.228Z,1.87
2018-08-25T04:46:18.953Z,2.10
2018-08-25T04:51:22.741Z,2.40
2018-08-25T04:56:26.516Z,2.40
2018-08-25T05:01:30.543Z,2.33
2018-08-25T05:06:34.338Z,2.40
2018-08-25T05:11:38.760Z,2.50
2018-08-25T05:16:42.771Z,2.10
2018-08-25T05:21:46.894Z,2.17
2018-08-25T05:26:50.892Z,2.10
2018-08-25T05:31:54.973Z,2.40
2018-08-25T05:36:58.989Z,2.73
2018-08-25T05:42:03.077Z,2.80
2018-08-25T05:47:06.944Z,2.73
2018-08-25T05:52:12.079Z,2.45
2018-08-25T05:57:15.848Z,2.63
2018-08-25T06:02:19.849Z,2.40
2018-08-25T06:07:23.858Z,1.90
2018-08-25T06:12:27.896Z,1.80
2018-08-25T06:17:31.956Z,1.77
2018-08-25T06:22:35.918Z,1.90
2018-08-25T06:27:39.702Z,1.87
2018-08-25T06:32:43.741Z,1.50
2018-08-25T06:37:47.754Z,1.50
2018-08-25T06:42:51.793Z,1.43
2018-08-25T06:47:55.808Z,1.40
2018-08-25T06:52:59.857Z,1.00
2018-08-25T06:58:04.113Z,1.30
2018-08-25T07:03:08.124Z,1.30
2018-08-25T07:08:11.908Z,1.13
2018-08-25T07:13:15.952Z,1.10
2018-08-25T07:18:19.973Z,1.17
2018-08-25T07:23:24.161Z,1.00
2018-08-25T07:28:28.185Z,1.47
2018-08-25T07:33:32.636Z,1.30
2018-08-25T07:38:36.713Z,1.40
2018-08-25T07:43:40.753Z,1.70
2018-08-25T07:48:44.694Z,1.70
2018-08-25T07:53:48.702Z,1.60
2018-08-25T07:58:52.634Z,1.80
2018-08-25T08:03:56.456Z,1.60
2018-08-25T08:09:00.729Z,1.50
2018-08-25T08:14:04.793Z,1.43
2018-08-25T08:19:08.572Z,1.70
2018-08-25T08:24:12.341Z,1.57
2018-08-25T08:29:16.377Z,1.30
2018-08-25T08:34:20.416Z,1.47
2018-08-25T08:39:24.532Z,1.50
2018-08-25T08:44:28.509Z,1.60
2018-08-25T08:49:46.306Z,1.60
2018-08-25T08:54:37.488Z,1.50
2018-08-25T08:59:41.487Z,1.70
2018-08-25T09:04:45.489Z,1.87
2018-08-25T09:09:49.316Z,1.77
2018-08-25T09:14:53.413Z,2.00
2018-08-25T09:19:57.240Z,1.93
2018-08-25T09:25:01.265Z,1.50
2018-08-25T09:30:05.296Z,1.60
2018-08-25T09:35:09.313Z,1.67
2018-08-25T09:40:13.104Z,1.77
2018-08-25T09:45:17.129Z,0.90
2018-08-25T09:50:20.901Z,1.20
2018-08-25T09:55:24.913Z,1.10
2018-08-25T10:00:28.684Z,1.10
2018-08-25T10:05:32.476Z,1.30
2018-08-25T10:10:36.273Z,1.37
2018-08-25T10:15:40.330Z,1.13
2018-08-25T10:20:44.125Z,1.20
2018-08-25T10:25:48.226Z,1.03
2018-08-25T10:30:52.325Z,1.33
2018-08-25T10:35:56.337Z,1.83
2018-08-25T10:41:00.609Z,1.60
2018-08-25T10:46:04.404Z,1.00
2018-08-25T10:51:08.441Z,1.30
2018-08-25T10:56:12.245Z,1.50
2018-08-25T11:01:16.102Z,1.70
2018-08-25T11:06:20.750Z,1.97
2018-08-25T11:11:25.145Z,2.00
2018-08-25T11:16:29.245Z,1.80
2018-08-25T11:21:33.264Z,2.00
2018-08-25T11:26:37.325Z,1.97
2018-08-25T11:31:41.647Z,2.10
2018-08-25T11:36:45.437Z,1.70
2018-08-25T11:41:49.681Z,1.63
2018-08-25T11:46:53.477Z,1.80
2018-08-25T11:51:57.508Z,1.63
2018-08-25T11:57:02.352Z,1.80
2018-08-25T12:02:06.201Z,1.67
2018-08-25T12:07:10.182Z,1.47
2018-08-25T12:12:14.197Z,1.50
2018-08-25T12:17:18.248Z,1.20
2018-08-25T12:22:22.248Z,1.63
2018-08-25T12:27:26.073Z,1.97
2018-08-25T12:32:29.966Z,1.90
2018-08-25T12:37:33.738Z,1.40
2018-08-25T12:42:37.780Z,1.40
2018-08-25T12:47:41.820Z,1.23
2018-08-25T12:52:45.869Z,1.27
2018-08-25T12:57:49.662Z,1.40
2018-08-25T13:02:53.690Z,1.50
2018-08-25T13:07:57.517Z,1.20
2018-08-25T13:13:01.568Z,1.40
2018-08-25T13:18:05.749Z,1.53
2018-08-25T13:23:09.560Z,1.70
2018-08-25T13:28:13.340Z,1.50
2018-08-25T13:33:17.160Z,1.30
2018-08-25T13:38:21.213Z,1.30
2018-08-25T13:43:25.042Z,1.03
2018-08-25T13:48:29.172Z,1.23
2018-08-25T13:53:33.210Z,1.10
2018-08-25T13:58:37.233Z,1.20
2018-08-25T14:03:41.267Z,0.90
2018-08-25T14:08:45.044Z,1.30
2018-08-25T14:13:49.688Z,1.40
2018-08-25T14:18:53.502Z,1.50
2018-08-25T14:23:57.292Z,1.23
2018-08-25T14:29:01.331Z,1.30
2018-08-25T14:34:05.302Z,1.50
2018-08-25T14:39:10.891Z,1.67
2018-08-25T14:44:15.014Z,1.57
2018-08-25T14:49:18.792Z,1.50
2018-08-25T14:54:23.049Z,1.60
2018-08-25T14:59:27.075Z,1.80
2018-08-25T15:04:31.075Z,1.77
2018-08-25T15:09:35.085Z,1.63
2018-08-25T15:14:39.134Z,2.23
2018-08-25T15:19:42.973Z,2.40
2018-08-25T15:24:46.745Z,2.50
2018-08-25T15:29:51.365Z,2.07
2018-08-25T15:34:55.136Z,1.52
2018-08-25T15:39:59.141Z,1.17
2018-08-25T15:45:03.221Z,1.23
2018-08-25T15:50:07.083Z,1.30
2018-08-25T16:00:21.290Z,1.50
2018-08-25T16:05:25.513Z,1.47
2018-08-25T16:10:29.295Z,1.70
2018-08-25T16:15:33.909Z,2.30
2018-08-25T16:20:37.684Z,2.33
2018-08-25T16:25:41.876Z,2.57
2018-08-25T16:30:45.674Z,2.80
2018-08-25T16:35:49.660Z,2.60
2018-08-25T16:40:53.661Z,2.40
2018-08-25T16:45:57.762Z,2.43
2018-08-25T16:51:02.053Z,2.70
2018-08-25T16:56:05.952Z,2.37
2018-08-25T17:01:09.978Z,1.83
2018-08-25T17:06:13.753Z,1.70
2018-08-25T17:11:17.541Z,1.97
2018-08-25T17:16:21.308Z,2.00
2018-08-25T17:21:25.333Z,1.53
2018-08-25T17:26:29.113Z,2.10
2018-08-25T17:31:33.146Z,1.80
2018-08-25T17:36:37.169Z,1.90
2018-08-25T17:41:41.602Z,2.33
2018-08-25T17:46:45.382Z,2.20
2018-08-25T17:51:49.400Z,2.03
2018-08-25T17:56:53.492Z,3.47
2018-08-25T18:01:57.434Z,3.93
2018-08-25T18:07:01.276Z,3.30
2018-08-25T18:12:05.325Z,2.20
2018-08-25T18:17:09.342Z,2.40
2018-08-25T18:22:13.101Z,2.03
2018-08-25T18:27:17.160Z,1.90
2018-08-25T18:32:20.937Z,2.23
2018-08-25T18:37:24.976Z,1.90
2018-08-25T18:42:28.977Z,2.13
2018-08-25T18:47:32.778Z,2.50
2018-08-25T18:52:36.805Z,2.90
2018-08-25T18:57:40.885Z,3.50
2018-08-25T19:02:44.677Z,3.17
2018-08-25T19:07:48.726Z,3.10
2018-08-25T19:12:52.718Z,3.40
2018-08-25T19:17:56.798Z,3.30
2018-08-25T19:23:00.909Z,3.67
2018-08-25T19:28:04.961Z,3.10
2018-08-25T19:33:08.997Z,3.10
2018-08-25T19:38:12.995Z,3.00
2018-08-25T19:43:17.002Z,2.87
2018-08-25T19:48:21.818Z,3.20
2018-08-25T19:53:25.616Z,2.98
2018-08-25T19:58:29.412Z,3.53
2018-08-25T20:03:33.477Z,3.70
2018-08-25T20:08:37.481Z,3.43
2018-08-25T20:13:41.373Z,3.80
2018-08-25T20:18:45.346Z,3.47
2018-08-25T20:23:49.128Z,4.10
2018-08-25T20:28:53.132Z,3.87
2018-08-25T20:33:57.209Z,3.50
2018-08-25T20:39:01.222Z,3.60
2018-08-25T20:44:05.244Z,3.47
2018-08-25T20:49:09.139Z,3.13
2018-08-25T20:54:13.132Z,3.37
2018-08-25T20:59:17.254Z,3.30
2018-08-25T21:04:21.042Z,3.50
2018-08-25T21:09:25.041Z,3.83
2018-08-25T21:14:29.062Z,3.77
2018-08-25T21:19:33.126Z,3.93
2018-08-25T21:24:36.909Z,3.93
2018-08-25T21:29:40.737Z,4.20
2018-08-25T21:34:44.532Z,3.67
2018-08-25T21:39:48.594Z,3.60
2018-08-25T21:44:52.411Z,4.10
2018-08-25T21:49:56.285Z,3.57
2018-08-25T21:55:00.401Z,3.70
2018-08-25T22:00:04.992Z,3.23
2018-08-25T22:05:09.061Z,3.43
2018-08-25T22:10:13.097Z,2.60
2018-08-25T22:15:17.126Z,3.20
2018-08-25T22:20:20.912Z,3.10
2018-08-25T22:25:24.693Z,3.03
2018-08-25T22:30:28.475Z,2.93
2018-08-25T22:35:32.524Z,3.10
2018-08-25T22:40:36.319Z,2.93
2018-08-25T22:45:40.390Z,2.83
2018-08-25T22:50:44.185Z,3.20
2018-08-25T22:55:48.288Z,3.00
2018-08-25T23:00:52.128Z,3.00
2018-08-25T23:05:56.157Z,3.00
2018-08-25T23:10:59.940Z,3.03
2018-08-25T23:16:04.664Z,3.00
2018-08-25T23:21:08.671Z,3.30
2018-08-25T23:26:12.685Z,3.30
2018-08-25T23:31:16.448Z,3.07
2018-08-25T23:36:20.221Z,2.83
2018-08-25T23:41:25.138Z,3.10
2018-08-25T23:46:28.901Z,3.10
2018-08-25T23:51:32.926Z,3.17
2018-08-25T23:56:36.696Z,3.60
